Airport Name : Viracopos

Other Name : CampinaViracopos

ICAO : SBKP

IATA : VCP

FAA :

Latitude : -23.007383

Longitude : -47.134522

Country : Brazil

Local Date and Time : 5/25/2018 7:55:00 AM

 

TAF (Terminal Aerodrome Forecast)

TAF SBKP 251007Z 2512/2612 10010KT CAVOK TX25/2518Z TN15/2609Z BECMG 2513/2515 16005KT BECMG 2517/2519 22005KT BECMG 2520/2522 13013KT RMK PGF

 

METAR (METeorological Aerodrome Report)

SBKP 251000Z 12012KT 8000 NSC 15/12 Q1023

SBKP 250900Z 12011KT CAVOK 15/12 Q1023

SBKP 250800Z 14011KT CAVOK 15/12 Q1023

SBKP 250700Z 12010KT CAVOK 15/13 Q1022